sensor_id;sensor_type;location;lat;lon;timestamp;P1;durP1;ratioP1;P2;durP2;ratioP2
6432;SDS011;3249;42.690;23.260;2023-04-15T00:00:06;12.53;;;7.53;;
6432;SDS011;3249;42.690;23.260;2023-04-15T00:02:39;11.10;;;7.67;;
6432;SDS011;3249;42.690;23.260;2023-04-15T00:05:08;9.33;;;7.47;;
6432;SDS011;3249;42.690;23.260;2023-04-15T00:07:40;8.77;;;7.77;;
6432;SDS011;3249;42.690;23.260;2023-04-15T00:10:10;11.33;;;7.17;;
6432;SDS011;3249;42.690;23.260;2023-04-15T00:12:39;10.33;;;7.57;;
6432;SDS011;3249;42.690;23.260;2023-04-15T00:15:08;8.67;;;7.77;;
6432;SDS011;3249;42.690;23.260;2023-04-15T00:17:38;8.90;;;7.53;;
6432;SDS011;3249;42.690;23.260;2023-04-15T00:20:07;9.37;;;8.33;;
6432;SDS011;3249;42.690;23.260;2023-04-15T00:22:40;9.30;;;7.87;;
6432;SDS011;3249;42.690;23.260;2023-04-15T00:25:09;9.33;;;8.03;;
6432;SDS011;3249;42.690;23.260;2023-04-15T00:27:37;8.90;;;7.87;;
6432;SDS011;3249;42.690;23.260;2023-04-15T00:30:07;10.67;;;8.53;;
6432;SDS011;3249;42.690;23.260;2023-04-15T00:32:36;8.60;;;7.67;;
6432;SDS011;3249;42.690;23.260;2023-04-15T00:35:07;9.53;;;7.83;;
6432;SDS011;3249;42.690;23.260;2023-04-15T00:37:36;9.97;;;7.93;;
6432;SDS011;3249;42.690;23.260;2023-04-15T00:40:09;8.93;;;8.03;;
6432;SDS011;3249;42.690;23.260;2023-04-15T00:42:40;13.57;;;9.10;;
6432;SDS011;3249;42.690;23.260;2023-04-15T00:45:09;8.50;;;7.43;;
6432;SDS011;3249;42.690;23.260;2023-04-15T00:47:40;7.63;;;6.73;;
6432;SDS011;3249;42.690;23.260;2023-04-15T00:50:10;7.70;;;6.90;;
6432;SDS011;3249;42.690;23.260;2023-04-15T00:52:40;10.67;;;7.93;;
6432;SDS011;3249;42.690;23.260;2023-04-15T00:55:12;9.20;;;7.43;;
6432;SDS011;3249;42.690;23.260;2023-04-15T00:57:41;9.27;;;8.40;;
6432;SDS011;3249;42.690;23.260;2023-04-15T01:00:10;11.37;;;8.87;;
6432;SDS011;3249;42.690;23.260;2023-04-15T01:02:41;9.50;;;7.87;;
6432;SDS011;3249;42.690;23.260;2023-04-15T01:05:10;8.27;;;7.50;;
6432;SDS011;3249;42.690;23.260;2023-04-15T01:07:41;8.70;;;7.80;;
6432;SDS011;3249;42.690;23.260;2023-04-15T01:10:13;6.80;;;5.60;;
6432;SDS011;3249;42.690;23.260;2023-04-15T01:12:43;7.10;;;6.40;;
6432;SDS011;3249;42.690;23.260;2023-04-15T01:15:12;6.20;;;5.60;;
6432;SDS011;3249;42.690;23.260;2023-04-15T01:17:41;7.30;;;5.50;;
6432;SDS011;3249;42.690;23.260;2023-04-15T01:20:10;7.53;;;6.20;;
6432;SDS011;3249;42.690;23.260;2023-04-15T01:22:41;7.37;;;6.67;;
6432;SDS011;3249;42.690;23.260;2023-04-15T01:25:13;8.27;;;7.33;;
6432;SDS011;3249;42.690;23.260;2023-04-15T01:27:51;8.80;;;7.97;;
6432;SDS011;3249;42.690;23.260;2023-04-15T01:30:20;8.67;;;7.77;;
6432;SDS011;3249;42.690;23.260;2023-04-15T01:32:49;9.73;;;8.13;;
6432;SDS011;3249;42.690;23.260;2023-04-15T01:35:36;8.97;;;8.07;;
6432;SDS011;3249;42.690;23.260;2023-04-15T01:38:09;8.20;;;7.40;;
6432;SDS011;3249;42.690;23.260;2023-04-15T01:40:38;9.10;;;8.00;;
6432;SDS011;3249;42.690;23.260;2023-04-15T01:43:12;9.03;;;8.23;;
6432;SDS011;3249;42.690;23.260;2023-04-15T01:45:42;8.70;;;7.87;;
6432;SDS011;3249;42.690;23.260;2023-04-15T01:48:12;11.43;;;8.90;;
6432;SDS011;3249;42.690;23.260;2023-04-15T01:50:43;8.13;;;5.30;;
6432;SDS011;3249;42.690;23.260;2023-04-15T01:53:14;5.83;;;5.33;;
6432;SDS011;3249;42.690;23.260;2023-04-15T01:55:44;6.40;;;5.63;;
6432;SDS011;3249;42.690;23.260;2023-04-15T01:58:17;5.93;;;5.23;;
6432;SDS011;3249;42.690;23.260;2023-04-15T02:00:48;7.17;;;6.13;;
6432;SDS011;3249;42.690;23.260;2023-04-15T02:03:18;7.07;;;6.47;;
6432;SDS011;3249;42.690;23.260;2023-04-15T02:05:48;7.83;;;7.03;;
6432;SDS011;3249;42.690;23.260;2023-04-15T02:08:19;8.17;;;6.57;;
6432;SDS011;3249;42.690;23.260;2023-04-15T02:10:49;8.40;;;6.87;;
6432;SDS011;3249;42.690;23.260;2023-04-15T02:13:24;8.33;;;7.57;;
6432;SDS011;3249;42.690;23.260;2023-04-15T02:15:57;8.17;;;7.40;;
6432;SDS011;3249;42.690;23.260;2023-04-15T02:18:27;8.20;;;7.50;;
6432;SDS011;3249;42.690;23.260;2023-04-15T02:20:58;7.67;;;6.37;;
6432;SDS011;3249;42.690;23.260;2023-04-15T02:23:28;6.73;;;6.13;;
6432;SDS011;3249;42.690;23.260;2023-04-15T02:25:58;6.57;;;5.97;;
6432;SDS011;3249;42.690;23.260;2023-04-15T02:28:34;7.77;;;6.00;;
6432;SDS011;3249;42.690;23.260;2023-04-15T02:31:04;6.30;;;5.67;;
6432;SDS011;3249;42.690;23.260;2023-04-15T02:33:35;8.73;;;6.40;;
6432;SDS011;3249;42.690;23.260;2023-04-15T02:36:05;7.33;;;6.30;;
6432;SDS011;3249;42.690;23.260;2023-04-15T02:38:38;9.67;;;6.70;;
6432;SDS011;3249;42.690;23.260;2023-04-15T02:41:09;7.37;;;6.43;;
6432;SDS011;3249;42.690;23.260;2023-04-15T02:43:42;8.20;;;6.07;;
6432;SDS011;3249;42.690;23.260;2023-04-15T02:46:13;10.07;;;6.43;;
6432;SDS011;3249;42.690;23.260;2023-04-15T02:48:44;11.47;;;7.20;;
6432;SDS011;3249;42.690;23.260;2023-04-15T02:51:15;10.27;;;7.17;;
6432;SDS011;3249;42.690;23.260;2023-04-15T02:53:46;9.27;;;6.87;;
6432;SDS011;3249;42.690;23.260;2023-04-15T02:56:16;9.73;;;6.73;;
6432;SDS011;3249;42.690;23.260;2023-04-15T02:58:51;7.73;;;6.97;;
6432;SDS011;3249;42.690;23.260;2023-04-15T03:01:23;7.40;;;6.70;;
6432;SDS011;3249;42.690;23.260;2023-04-15T03:03:53;7.83;;;7.10;;
6432;SDS011;3249;42.690;23.260;2023-04-15T03:06:23;8.97;;;6.93;;
6432;SDS011;3249;42.690;23.260;2023-04-15T03:08:53;9.80;;;8.10;;
6432;SDS011;3249;42.690;23.260;2023-04-15T03:11:26;7.67;;;6.87;;
6432;SDS011;3249;42.690;23.260;2023-04-15T03:14:00;9.57;;;7.50;;
6432;SDS011;3249;42.690;23.260;2023-04-15T03:16:34;12.20;;;8.67;;
6432;SDS011;3249;42.690;23.260;2023-04-15T03:19:05;10.10;;;8.87;;
6432;SDS011;3249;42.690;23.260;2023-04-15T03:21:35;9.00;;;8.10;;
6432;SDS011;3249;42.690;23.260;2023-04-15T03:24:05;10.00;;;7.57;;
6432;SDS011;3249;42.690;23.260;2023-04-15T03:26:35;9.03;;;7.77;;
6432;SDS011;3249;42.690;23.260;2023-04-15T03:29:14;8.97;;;7.60;;
6432;SDS011;3249;42.690;23.260;2023-04-15T03:31:45;13.57;;;8.10;;
6432;SDS011;3249;42.690;23.260;2023-04-15T03:34:16;9.20;;;7.97;;
6432;SDS011;3249;42.690;23.260;2023-04-15T03:36:46;9.87;;;7.90;;
6432;SDS011;3249;42.690;23.260;2023-04-15T03:39:17;11.53;;;8.57;;
6432;SDS011;3249;42.690;23.260;2023-04-15T03:41:47;8.93;;;7.23;;
6432;SDS011;3249;42.690;23.260;2023-04-15T03:44:21;9.20;;;8.17;;
6432;SDS011;3249;42.690;23.260;2023-04-15T03:46:51;9.47;;;7.57;;
6432;SDS011;3249;42.690;23.260;2023-04-15T03:49:21;8.87;;;7.57;;
6432;SDS011;3249;42.690;23.260;2023-04-15T03:51:52;10.47;;;8.13;;
6432;SDS011;3249;42.690;23.260;2023-04-15T03:54:22;11.43;;;8.37;;
6432;SDS011;3249;42.690;23.260;2023-04-15T03:56:52;14.30;;;10.73;;
6432;SDS011;3249;42.690;23.260;2023-04-15T03:59:25;10.20;;;9.07;;
6432;SDS011;3249;42.690;23.260;2023-04-15T04:01:55;15.27;;;12.00;;
6432;SDS011;3249;42.690;23.260;2023-04-15T04:04:25;21.23;;;12.60;;
6432;SDS011;3249;42.690;23.260;2023-04-15T04:06:55;10.67;;;9.47;;
6432;SDS011;3249;42.690;23.260;2023-04-15T04:09:25;11.50;;;9.93;;
6432;SDS011;3249;42.690;23.260;2023-04-15T04:11:56;8.80;;;7.90;;
6432;SDS011;3249;42.690;23.260;2023-04-15T04:14:29;12.07;;;8.63;;
6432;SDS011;3249;42.690;23.260;2023-04-15T04:17:00;7.83;;;6.90;;
6432;SDS011;3249;42.690;23.260;2023-04-15T04:19:30;9.43;;;8.40;;
6432;SDS011;3249;42.690;23.260;2023-04-15T04:22:00;11.47;;;8.43;;
6432;SDS011;3249;42.690;23.260;2023-04-15T04:24:30;10.70;;;9.60;;
6432;SDS011;3249;42.690;23.260;2023-04-15T04:27:00;10.43;;;9.37;;
6432;SDS011;3249;42.690;23.260;2023-04-15T04:29:33;11.40;;;10.20;;
6432;SDS011;3249;42.690;23.260;2023-04-15T04:32:04;36.77;;;22.30;;
6432;SDS011;3249;42.690;23.260;2023-04-15T04:34:34;28.43;;;19.83;;
6432;SDS011;3249;42.690;23.260;2023-04-15T04:37:04;23.30;;;15.83;;
6432;SDS011;3249;42.690;23.260;2023-04-15T04:39:34;25.80;;;14.20;;
6432;SDS011;3249;42.690;23.260;2023-04-15T04:42:04;10.83;;;8.87;;
6432;SDS011;3249;42.690;23.260;2023-04-15T04:44:37;12.10;;;10.83;;
6432;SDS011;3249;42.690;23.260;2023-04-15T04:47:08;12.70;;;8.17;;
6432;SDS011;3249;42.690;23.260;2023-04-15T04:49:38;8.40;;;6.63;;
6432;SDS011;3249;42.690;23.260;2023-04-15T04:52:09;7.80;;;6.77;;
6432;SDS011;3249;42.690;23.260;2023-04-15T04:54:39;9.43;;;7.93;;
6432;SDS011;3249;42.690;23.260;2023-04-15T04:57:09;8.63;;;6.83;;
6432;SDS011;3249;42.690;23.260;2023-04-15T04:59:42;7.03;;;6.33;;
6432;SDS011;3249;42.690;23.260;2023-04-15T05:02:12;8.40;;;6.23;;
6432;SDS011;3249;42.690;23.260;2023-04-15T05:04:42;7.10;;;6.37;;
6432;SDS011;3249;42.690;23.260;2023-04-15T05:07:13;7.00;;;6.00;;
6432;SDS011;3249;42.690;23.260;2023-04-15T05:09:43;7.43;;;6.60;;
6432;SDS011;3249;42.690;23.260;2023-04-15T05:12:14;8.47;;;7.40;;
6432;SDS011;3249;42.690;23.260;2023-04-15T05:14:47;10.97;;;7.17;;
6432;SDS011;3249;42.690;23.260;2023-04-15T05:17:17;7.43;;;6.73;;
6432;SDS011;3249;42.690;23.260;2023-04-15T05:19:48;8.40;;;6.80;;
6432;SDS011;3249;42.690;23.260;2023-04-15T05:22:19;9.07;;;6.23;;
6432;SDS011;3249;42.690;23.260;2023-04-15T05:24:50;6.50;;;5.90;;
6432;SDS011;3249;42.690;23.260;2023-04-15T05:27:21;7.07;;;6.40;;
6432;SDS011;3249;42.690;23.260;2023-04-15T05:29:54;8.00;;;6.70;;
6432;SDS011;3249;42.690;23.260;2023-04-15T05:32:25;8.17;;;7.37;;
6432;SDS011;3249;42.690;23.260;2023-04-15T05:34:56;13.77;;;8.20;;
6432;SDS011;3249;42.690;23.260;2023-04-15T05:37:26;13.70;;;9.00;;
6432;SDS011;3249;42.690;23.260;2023-04-15T05:39:57;12.07;;;9.33;;
6432;SDS011;3249;42.690;23.260;2023-04-15T05:42:28;14.90;;;11.63;;
6432;SDS011;3249;42.690;23.260;2023-04-15T05:45:01;14.70;;;12.57;;
6432;SDS011;3249;42.690;23.260;2023-04-15T05:47:35;16.47;;;13.70;;
6432;SDS011;3249;42.690;23.260;2023-04-15T05:50:06;16.23;;;13.43;;
6432;SDS011;3249;42.690;23.260;2023-04-15T05:52:36;15.03;;;13.43;;
6432;SDS011;3249;42.690;23.260;2023-04-15T05:55:07;13.20;;;11.87;;
6432;SDS011;3249;42.690;23.260;2023-04-15T05:57:38;14.87;;;13.27;;
6432;SDS011;3249;42.690;23.260;2023-04-15T06:00:12;15.60;;;13.07;;
6432;SDS011;3249;42.690;23.260;2023-04-15T06:02:43;15.93;;;12.93;;
6432;SDS011;3249;42.690;23.260;2023-04-15T06:05:13;17.00;;;13.00;;
6432;SDS011;3249;42.690;23.260;2023-04-15T06:07:44;15.60;;;13.17;;
6432;SDS011;3249;42.690;23.260;2023-04-15T06:10:16;19.07;;;13.73;;
6432;SDS011;3249;42.690;23.260;2023-04-15T06:12:47;22.17;;;14.57;;
6432;SDS011;3249;42.690;23.260;2023-04-15T06:15:20;18.77;;;13.90;;
6432;SDS011;3249;42.690;23.260;2023-04-15T06:17:51;13.73;;;11.30;;
6432;SDS011;3249;42.690;23.260;2023-04-15T06:20:22;21.77;;;13.97;;
6432;SDS011;3249;42.690;23.260;2023-04-15T06:22:52;20.20;;;14.13;;
6432;SDS011;3249;42.690;23.260;2023-04-15T06:25:31;20.70;;;13.17;;
6432;SDS011;3249;42.690;23.260;2023-04-15T06:28:02;16.30;;;12.20;;
6432;SDS011;3249;42.690;23.260;2023-04-15T06:30:35;17.47;;;11.73;;
6432;SDS011;3249;42.690;23.260;2023-04-15T06:33:06;12.67;;;9.27;;
6432;SDS011;3249;42.690;23.260;2023-04-15T06:35:36;13.50;;;9.17;;
6432;SDS011;3249;42.690;23.260;2023-04-15T06:38:07;14.53;;;9.93;;
6432;SDS011;3249;42.690;23.260;2023-04-15T06:40:37;12.07;;;9.17;;
6432;SDS011;3249;42.690;23.260;2023-04-15T06:43:08;9.80;;;8.80;;
6432;SDS011;3249;42.690;23.260;2023-04-15T06:46:02;9.33;;;8.43;;
6432;SDS011;3249;42.690;23.260;2023-04-15T06:48:33;10.47;;;8.07;;
6432;SDS011;3249;42.690;23.260;2023-04-15T06:51:03;11.97;;;8.00;;
6432;SDS011;3249;42.690;23.260;2023-04-15T06:53:34;15.00;;;8.93;;
6432;SDS011;3249;42.690;23.260;2023-04-15T06:56:07;11.33;;;8.47;;
6432;SDS011;3249;42.690;23.260;2023-04-15T06:58:39;12.13;;;10.23;;
6432;SDS011;3249;42.690;23.260;2023-04-15T07:01:12;17.80;;;11.73;;
6432;SDS011;3249;42.690;23.260;2023-04-15T07:03:43;19.33;;;10.80;;
6432;SDS011;3249;42.690;23.260;2023-04-15T07:06:13;12.93;;;9.20;;
6432;SDS011;3249;42.690;23.260;2023-04-15T07:08:43;13.17;;;8.70;;
6432;SDS011;3249;42.690;23.260;2023-04-15T07:11:14;12.17;;;8.70;;
6432;SDS011;3249;42.690;23.260;2023-04-15T07:13:45;9.90;;;8.03;;
6432;SDS011;3249;42.690;23.260;2023-04-15T07:16:19;6.90;;;4.60;;
6432;SDS011;3249;42.690;23.260;2023-04-15T07:18:49;8.07;;;4.10;;
6432;SDS011;3249;42.690;23.260;2023-04-15T07:21:21;7.03;;;2.50;;
6432;SDS011;3249;42.690;23.260;2023-04-15T07:23:53;2.93;;;2.20;;
6432;SDS011;3249;42.690;23.260;2023-04-15T07:26:24;2.93;;;2.20;;
6432;SDS011;3249;42.690;23.260;2023-04-15T07:28:55;4.37;;;2.20;;
6432;SDS011;3249;42.690;23.260;2023-04-15T07:31:28;3.23;;;2.23;;
6432;SDS011;3249;42.690;23.260;2023-04-15T07:33:58;4.57;;;2.10;;
6432;SDS011;3249;42.690;23.260;2023-04-15T07:36:29;2.10;;;1.90;;
6432;SDS011;3249;42.690;23.260;2023-04-15T07:39:00;4.63;;;3.70;;
6432;SDS011;3249;42.690;23.260;2023-04-15T07:41:31;5.63;;;3.27;;
6432;SDS011;3249;42.690;23.260;2023-04-15T07:44:02;3.40;;;2.17;;
6432;SDS011;3249;42.690;23.260;2023-04-15T07:46:35;5.87;;;2.40;;
6432;SDS011;3249;42.690;23.260;2023-04-15T07:49:05;2.07;;;1.97;;
6432;SDS011;3249;42.690;23.260;2023-04-15T07:51:36;2.20;;;2.10;;
6432;SDS011;3249;42.690;23.260;2023-04-15T07:54:06;5.80;;;3.87;;
6432;SDS011;3249;42.690;23.260;2023-04-15T07:56:36;3.73;;;3.40;;
6432;SDS011;3249;42.690;23.260;2023-04-15T07:59:07;2.60;;;2.40;;
6432;SDS011;3249;42.690;23.260;2023-04-15T08:01:40;9.30;;;5.27;;
6432;SDS011;3249;42.690;23.260;2023-04-15T08:04:10;3.93;;;2.13;;
6432;SDS011;3249;42.690;23.260;2023-04-15T08:06:41;4.20;;;2.40;;
6432;SDS011;3249;42.690;23.260;2023-04-15T08:09:11;4.60;;;4.20;;
6432;SDS011;3249;42.690;23.260;2023-04-15T08:11:42;3.00;;;2.77;;
6432;SDS011;3249;42.690;23.260;2023-04-15T08:14:12;1.97;;;1.87;;
6432;SDS011;3249;42.690;23.260;2023-04-15T08:16:46;2.10;;;2.00;;
6432;SDS011;3249;42.690;23.260;2023-04-15T08:19:16;2.80;;;2.13;;
6432;SDS011;3249;42.690;23.260;2023-04-15T08:21:46;2.73;;;2.30;;
6432;SDS011;3249;42.690;23.260;2023-04-15T08:24:17;3.13;;;2.30;;
6432;SDS011;3249;42.690;23.260;2023-04-15T08:26:47;2.37;;;2.17;;
6432;SDS011;3249;42.690;23.260;2023-04-15T08:29:18;2.60;;;2.40;;
6432;SDS011;3249;42.690;23.260;2023-04-15T08:31:52;2.90;;;2.60;;
6432;SDS011;3249;42.690;23.260;2023-04-15T08:34:23;5.10;;;3.40;;
6432;SDS011;3249;42.690;23.260;2023-04-15T08:36:54;2.97;;;2.70;;
6432;SDS011;3249;42.690;23.260;2023-04-15T08:39:24;2.20;;;2.10;;
6432;SDS011;3249;42.690;23.260;2023-04-15T08:41:58;2.80;;;2.10;;
6432;SDS011;3249;42.690;23.260;2023-04-15T08:44:33;2.50;;;2.30;;
6432;SDS011;3249;42.690;23.260;2023-04-15T08:47:07;2.67;;;2.47;;
6432;SDS011;3249;42.690;23.260;2023-04-15T08:49:39;2.77;;;2.57;;
6432;SDS011;3249;42.690;23.260;2023-04-15T08:52:21;2.33;;;2.23;;
6432;SDS011;3249;42.690;23.260;2023-04-15T08:54:51;2.53;;;2.33;;
6432;SDS011;3249;42.690;23.260;2023-04-15T08:57:26;2.30;;;2.10;;
6432;SDS011;3249;42.690;23.260;2023-04-15T08:59:57;3.40;;;2.40;;
6432;SDS011;3249;42.690;23.260;2023-04-15T09:02:33;6.90;;;2.57;;
6432;SDS011;3249;42.690;23.260;2023-04-15T09:05:04;2.87;;;2.67;;
6432;SDS011;3249;42.690;23.260;2023-04-15T09:07:35;2.53;;;2.33;;
6432;SDS011;3249;42.690;23.260;2023-04-15T09:10:07;3.20;;;2.93;;
6432;SDS011;3249;42.690;23.260;2023-04-15T09:12:38;2.83;;;2.60;;
6432;SDS011;3249;42.690;23.260;2023-04-15T09:15:10;2.80;;;2.57;;
6432;SDS011;3249;42.690;23.260;2023-04-15T09:17:45;2.30;;;1.87;;
6432;SDS011;3249;42.690;23.260;2023-04-15T09:20:16;5.67;;;2.90;;
6432;SDS011;3249;42.690;23.260;2023-04-15T09:22:47;2.37;;;2.17;;
6432;SDS011;3249;42.690;23.260;2023-04-15T09:25:24;2.20;;;2.07;;
6432;SDS011;3249;42.690;23.260;2023-04-15T09:27:59;4.53;;;2.30;;
6432;SDS011;3249;42.690;23.260;2023-04-15T09:30:30;2.33;;;2.07;;
6432;SDS011;3249;42.690;23.260;2023-04-15T09:33:03;3.20;;;2.10;;
6432;SDS011;3249;42.690;23.260;2023-04-15T09:35:36;2.53;;;2.27;;
6432;SDS011;3249;42.690;23.260;2023-04-15T09:38:07;3.03;;;2.33;;
6432;SDS011;3249;42.690;23.260;2023-04-15T09:40:39;4.27;;;3.03;;
6432;SDS011;3249;42.690;23.260;2023-04-15T09:43:10;2.50;;;2.30;;
6432;SDS011;3249;42.690;23.260;2023-04-15T09:45:46;2.80;;;2.60;;
6432;SDS011;3249;42.690;23.260;2023-04-15T09:48:21;2.00;;;1.90;;
6432;SDS011;3249;42.690;23.260;2023-04-15T09:50:53;1.80;;;1.80;;
6432;SDS011;3249;42.690;23.260;2023-04-15T09:53:27;2.23;;;2.13;;
6432;SDS011;3249;42.690;23.260;2023-04-15T09:55:58;3.80;;;2.77;;
6432;SDS011;3249;42.690;23.260;2023-04-15T09:58:29;2.57;;;2.47;;
6432;SDS011;3249;42.690;23.260;2023-04-15T10:01:02;2.30;;;2.20;;
6432;SDS011;3249;42.690;23.260;2023-04-15T10:03:36;2.50;;;2.30;;
6432;SDS011;3249;42.690;23.260;2023-04-15T10:06:07;2.47;;;2.27;;
6432;SDS011;3249;42.690;23.260;2023-04-15T10:08:38;3.13;;;2.23;;
6432;SDS011;3249;42.690;23.260;2023-04-15T10:11:10;2.90;;;2.70;;
6432;SDS011;3249;42.690;23.260;2023-04-15T10:13:41;3.43;;;2.40;;
6432;SDS011;3249;42.690;23.260;2023-04-15T10:16:13;4.53;;;3.00;;
6432;SDS011;3249;42.690;23.260;2023-04-15T10:18:47;3.63;;;2.50;;
6432;SDS011;3249;42.690;23.260;2023-04-15T10:21:24;4.20;;;2.77;;
6432;SDS011;3249;42.690;23.260;2023-04-15T10:23:54;2.63;;;2.43;;
6432;SDS011;3249;42.690;23.260;2023-04-15T10:26:25;2.97;;;2.43;;
6432;SDS011;3249;42.690;23.260;2023-04-15T10:28:57;2.60;;;2.50;;
6432;SDS011;3249;42.690;23.260;2023-04-15T10:31:28;2.43;;;2.33;;
6432;SDS011;3249;42.690;23.260;2023-04-15T10:34:01;2.70;;;2.50;;
6432;SDS011;3249;42.690;23.260;2023-04-15T10:36:32;3.77;;;3.47;;
6432;SDS011;3249;42.690;23.260;2023-04-15T10:39:03;2.63;;;2.43;;
6432;SDS011;3249;42.690;23.260;2023-04-15T10:42:10;2.80;;;2.63;;
6432;SDS011;3249;42.690;23.260;2023-04-15T10:44:42;5.50;;;2.37;;
6432;SDS011;3249;42.690;23.260;2023-04-15T10:47:14;4.53;;;2.70;;
6432;SDS011;3249;42.690;23.260;2023-04-15T10:49:50;3.10;;;2.60;;
6432;SDS011;3249;42.690;23.260;2023-04-15T10:52:27;4.17;;;2.60;;
6432;SDS011;3249;42.690;23.260;2023-04-15T10:55:01;3.67;;;2.70;;
6432;SDS011;3249;42.690;23.260;2023-04-15T10:57:36;2.80;;;2.70;;
6432;SDS011;3249;42.690;23.260;2023-04-15T11:00:11;2.90;;;2.70;;
6432;SDS011;3249;42.690;23.260;2023-04-15T11:02:44;3.20;;;3.00;;
6432;SDS011;3249;42.690;23.260;2023-04-15T11:05:18;3.63;;;3.33;;
6432;SDS011;3249;42.690;23.260;2023-04-15T11:07:50;3.00;;;2.80;;
6432;SDS011;3249;42.690;23.260;2023-04-15T11:13:24;3.00;;;2.80;;
6432;SDS011;3249;42.690;23.260;2023-04-15T11:15:58;2.60;;;2.43;;
6432;SDS011;3249;42.690;23.260;2023-04-15T11:18:29;3.33;;;2.90;;
6432;SDS011;3249;42.690;23.260;2023-04-15T11:21:05;3.13;;;2.87;;
6432;SDS011;3249;42.690;23.260;2023-04-15T11:23:37;3.00;;;2.77;;
6432;SDS011;3249;42.690;23.260;2023-04-15T11:26:10;4.07;;;2.77;;
6432;SDS011;3249;42.690;23.260;2023-04-15T11:28:41;2.87;;;2.77;;
6432;SDS011;3249;42.690;23.260;2023-04-15T11:31:13;3.00;;;2.80;;
6432;SDS011;3249;42.690;23.260;2023-04-15T11:33:45;3.23;;;3.03;;
6432;SDS011;3249;42.690;23.260;2023-04-15T11:36:26;2.90;;;2.80;;
6432;SDS011;3249;42.690;23.260;2023-04-15T11:38:57;3.03;;;2.73;;
6432;SDS011;3249;42.690;23.260;2023-04-15T11:41:28;3.00;;;2.80;;
6432;SDS011;3249;42.690;23.260;2023-04-15T11:43:58;3.10;;;2.77;;
6432;SDS011;3249;42.690;23.260;2023-04-15T11:46:29;3.43;;;3.13;;
6432;SDS011;3249;42.690;23.260;2023-04-15T11:48:59;3.93;;;3.23;;
6432;SDS011;3249;42.690;23.260;2023-04-15T11:51:34;3.17;;;2.87;;
6432;SDS011;3249;42.690;23.260;2023-04-15T11:54:03;3.07;;;2.77;;
6432;SDS011;3249;42.690;23.260;2023-04-15T11:56:32;2.47;;;2.37;;
6432;SDS011;3249;42.690;23.260;2023-04-15T11:59:01;2.87;;;2.70;;
6432;SDS011;3249;42.690;23.260;2023-04-15T12:01:30;2.50;;;2.40;;
6432;SDS011;3249;42.690;23.260;2023-04-15T12:04:00;3.17;;;2.97;;
6432;SDS011;3249;42.690;23.260;2023-04-15T12:06:30;2.40;;;2.30;;
6432;SDS011;3249;42.690;23.260;2023-04-15T12:09:06;2.73;;;2.63;;
6432;SDS011;3249;42.690;23.260;2023-04-15T12:11:40;2.90;;;2.70;;
6432;SDS011;3249;42.690;23.260;2023-04-15T12:14:12;3.03;;;2.77;;
6432;SDS011;3249;42.690;23.260;2023-04-15T12:16:47;2.90;;;2.70;;
6432;SDS011;3249;42.690;23.260;2023-04-15T12:19:21;2.70;;;2.50;;
6432;SDS011;3249;42.690;23.260;2023-04-15T12:21:56;2.53;;;2.33;;
6432;SDS011;3249;42.690;23.260;2023-04-15T12:24:26;2.83;;;2.63;;
6432;SDS011;3249;42.690;23.260;2023-04-15T12:27:00;2.80;;;2.70;;
6432;SDS011;3249;42.690;23.260;2023-04-15T12:29:30;3.50;;;2.87;;
6432;SDS011;3249;42.690;23.260;2023-04-15T12:32:03;3.13;;;2.93;;
6432;SDS011;3249;42.690;23.260;2023-04-15T12:34:34;3.17;;;2.83;;
6432;SDS011;3249;42.690;23.260;2023-04-15T12:37:07;3.20;;;3.00;;
6432;SDS011;3249;42.690;23.260;2023-04-15T12:39:38;2.70;;;2.50;;
6432;SDS011;3249;42.690;23.260;2023-04-15T12:42:08;3.53;;;2.67;;
6432;SDS011;3249;42.690;23.260;2023-04-15T12:44:38;2.80;;;2.60;;
6432;SDS011;3249;42.690;23.260;2023-04-15T12:47:08;2.90;;;2.80;;
6432;SDS011;3249;42.690;23.260;2023-04-15T12:49:37;2.70;;;2.60;;
6432;SDS011;3249;42.690;23.260;2023-04-15T12:52:09;3.37;;;3.10;;
6432;SDS011;3249;42.690;23.260;2023-04-15T12:54:38;2.73;;;2.57;;
6432;SDS011;3249;42.690;23.260;2023-04-15T12:57:07;3.00;;;2.80;;
6432;SDS011;3249;42.690;23.260;2023-04-15T12:59:36;2.70;;;2.50;;
6432;SDS011;3249;42.690;23.260;2023-04-15T13:02:05;3.17;;;2.73;;
6432;SDS011;3249;42.690;23.260;2023-04-15T13:04:34;2.60;;;2.50;;
6432;SDS011;3249;42.690;23.260;2023-04-15T13:07:03;2.83;;;2.73;;
6432;SDS011;3249;42.690;23.260;2023-04-15T13:09:34;2.60;;;2.50;;
6432;SDS011;3249;42.690;23.260;2023-04-15T13:12:04;3.13;;;2.40;;
6432;SDS011;3249;42.690;23.260;2023-04-15T13:14:33;2.63;;;2.47;;
6432;SDS011;3249;42.690;23.260;2023-04-15T13:17:02;3.70;;;3.40;;
6432;SDS011;3249;42.690;23.260;2023-04-15T13:19:34;2.80;;;2.70;;
6432;SDS011;3249;42.690;23.260;2023-04-15T13:22:03;2.90;;;2.60;;
6432;SDS011;3249;42.690;23.260;2023-04-15T13:24:35;2.90;;;2.80;;
6432;SDS011;3249;42.690;23.260;2023-04-15T13:27:05;2.60;;;2.40;;
6432;SDS011;3249;42.690;23.260;2023-04-15T13:29:34;2.30;;;2.20;;
6432;SDS011;3249;42.690;23.260;2023-04-15T13:32:05;2.67;;;2.50;;
6432;SDS011;3249;42.690;23.260;2023-04-15T13:34:34;3.07;;;2.97;;
6432;SDS011;3249;42.690;23.260;2023-04-15T13:37:05;3.13;;;2.93;;
6432;SDS011;3249;42.690;23.260;2023-04-15T13:39:36;3.53;;;3.10;;
6432;SDS011;3249;42.690;23.260;2023-04-15T13:42:06;2.93;;;2.73;;
6432;SDS011;3249;42.690;23.260;2023-04-15T13:44:35;2.80;;;2.70;;
6432;SDS011;3249;42.690;23.260;2023-04-15T13:47:04;2.83;;;2.63;;
6432;SDS011;3249;42.690;23.260;2023-04-15T13:49:33;3.20;;;2.90;;
6432;SDS011;3249;42.690;23.260;2023-04-15T13:52:03;4.27;;;2.93;;
6432;SDS011;3249;42.690;23.260;2023-04-15T13:54:32;2.67;;;2.50;;
6432;SDS011;3249;42.690;23.260;2023-04-15T13:57:04;2.63;;;2.53;;
6432;SDS011;3249;42.690;23.260;2023-04-15T13:59:33;2.93;;;2.73;;
6432;SDS011;3249;42.690;23.260;2023-04-15T14:02:03;3.00;;;2.80;;
6432;SDS011;3249;42.690;23.260;2023-04-15T14:04:32;3.27;;;2.83;;
6432;SDS011;3249;42.690;23.260;2023-04-15T14:07:01;2.63;;;2.47;;
6432;SDS011;3249;42.690;23.260;2023-04-15T14:09:31;3.00;;;2.63;;
6432;SDS011;3249;42.690;23.260;2023-04-15T14:12:06;2.97;;;2.70;;
6432;SDS011;3249;42.690;23.260;2023-04-15T14:14:35;2.97;;;2.77;;
6432;SDS011;3249;42.690;23.260;2023-04-15T14:17:07;2.90;;;2.80;;
6432;SDS011;3249;42.690;23.260;2023-04-15T14:19:36;4.23;;;2.80;;
6432;SDS011;3249;42.690;23.260;2023-04-15T14:22:05;2.90;;;2.70;;
6432;SDS011;3249;42.690;23.260;2023-04-15T14:24:34;2.50;;;2.40;;
6432;SDS011;3249;42.690;23.260;2023-04-15T14:27:06;2.60;;;2.50;;
6432;SDS011;3249;42.690;23.260;2023-04-15T14:29:37;3.23;;;3.03;;
6432;SDS011;3249;42.690;23.260;2023-04-15T14:32:06;2.97;;;2.77;;
6432;SDS011;3249;42.690;23.260;2023-04-15T14:34:35;2.60;;;2.50;;
6432;SDS011;3249;42.690;23.260;2023-04-15T14:37:05;3.00;;;2.80;;
6432;SDS011;3249;42.690;23.260;2023-04-15T14:39:34;2.60;;;2.50;;
6432;SDS011;3249;42.690;23.260;2023-04-15T14:42:07;3.23;;;2.63;;
6432;SDS011;3249;42.690;23.260;2023-04-15T14:44:36;2.83;;;2.60;;
6432;SDS011;3249;42.690;23.260;2023-04-15T14:47:05;3.10;;;3.00;;
6432;SDS011;3249;42.690;23.260;2023-04-15T14:49:34;3.23;;;2.60;;
6432;SDS011;3249;42.690;23.260;2023-04-15T14:52:07;2.50;;;2.40;;
6432;SDS011;3249;42.690;23.260;2023-04-15T14:54:36;2.83;;;2.63;;
6432;SDS011;3249;42.690;23.260;2023-04-15T14:57:08;2.87;;;2.67;;
6432;SDS011;3249;42.690;23.260;2023-04-15T14:59:37;3.40;;;2.77;;
6432;SDS011;3249;42.690;23.260;2023-04-15T15:02:06;3.60;;;2.70;;
6432;SDS011;3249;42.690;23.260;2023-04-15T15:04:36;2.70;;;2.60;;
6432;SDS011;3249;42.690;23.260;2023-04-15T15:07:05;2.80;;;2.60;;
6432;SDS011;3249;42.690;23.260;2023-04-15T15:09:34;3.10;;;2.53;;
6432;SDS011;3249;42.690;23.260;2023-04-15T15:12:03;2.80;;;2.60;;
6432;SDS011;3249;42.690;23.260;2023-04-15T15:14:36;2.83;;;2.63;;
6432;SDS011;3249;42.690;23.260;2023-04-15T15:17:05;2.60;;;2.50;;
6432;SDS011;3249;42.690;23.260;2023-04-15T15:19:34;2.70;;;2.47;;
6432;SDS011;3249;42.690;23.260;2023-04-15T15:22:03;3.20;;;3.00;;
6432;SDS011;3249;42.690;23.260;2023-04-15T15:24:32;2.80;;;2.60;;